createdAt,value
2019-03-16T00:00:13.378Z,8.50
2019-03-16T00:02:42.049Z,10.13
2019-03-16T00:05:10.748Z,10.17
2019-03-16T00:07:39.666Z,10.10
2019-03-16T00:10:08.737Z,10.97
2019-03-16T00:12:37.412Z,8.87
2019-03-16T00:15:07.481Z,7.20
2019-03-16T00:17:36.221Z,6.13
2019-03-16T00:20:08.027Z,5.43
2019-03-16T00:22:36.691Z,4.43
2019-03-16T00:25:07.153Z,4.20
2019-03-16T00:27:35.819Z,6.20
2019-03-16T00:30:15.315Z,5.33
2019-03-16T00:32:44.071Z,5.17
2019-03-16T00:35:12.993Z,6.37
2019-03-16T00:37:41.716Z,6.30
2019-03-16T00:40:12.166Z,5.50
2019-03-16T00:42:40.830Z,5.47
2019-03-16T00:45:11.406Z,5.33
2019-03-16T00:47:40.061Z,5.10
2019-03-16T00:50:11.222Z,5.70
2019-03-16T00:52:39.883Z,5.00
2019-03-16T00:55:10.158Z,5.10
2019-03-16T00:57:38.851Z,4.73
2019-03-16T01:00:12.697Z,4.60
2019-03-16T01:02:41.383Z,5.27
2019-03-16T01:05:10.695Z,5.50
2019-03-16T01:07:39.529Z,4.57
2019-03-16T01:10:09.965Z,4.27
2019-03-16T01:12:38.628Z,4.70
2019-03-16T01:15:10.601Z,5.30
2019-03-16T01:17:39.262Z,4.43
2019-03-16T01:20:10.042Z,3.93
2019-03-16T01:22:38.725Z,4.63
2019-03-16T01:25:08.540Z,4.50
2019-03-16T01:27:37.292Z,4.63
2019-03-16T01:30:17.009Z,4.63
2019-03-16T01:32:45.663Z,4.77
2019-03-16T01:35:14.314Z,4.73
2019-03-16T01:37:43.079Z,4.83
2019-03-16T01:40:12.333Z,5.23
2019-03-16T01:42:41.005Z,4.90
2019-03-16T01:45:11.327Z,6.10
2019-03-16T01:47:40.081Z,5.13
2019-03-16T01:50:11.061Z,5.03
2019-03-16T01:52:39.722Z,5.60
2019-03-16T01:55:09.585Z,5.60
2019-03-16T01:57:38.252Z,5.17
2019-03-16T02:00:09.905Z,5.40
2019-03-16T02:02:38.553Z,4.33
2019-03-16T02:05:08.118Z,4.60
2019-03-16T02:07:36.783Z,5.30
2019-03-16T02:10:07.362Z,5.13
2019-03-16T02:12:36.029Z,5.00
2019-03-16T02:15:06.111Z,5.43
2019-03-16T02:17:34.807Z,5.20
2019-03-16T02:20:03.864Z,5.10
2019-03-16T02:22:32.552Z,5.43
2019-03-16T02:25:01.207Z,5.63
2019-03-16T02:27:29.886Z,6.07
2019-03-16T02:29:58.552Z,5.70
2019-03-16T02:32:27.240Z,5.70
2019-03-16T02:34:55.881Z,5.57
2019-03-16T02:37:24.573Z,5.53
2019-03-16T02:39:53.222Z,5.90
2019-03-16T02:42:21.896Z,6.13
2019-03-16T02:44:50.567Z,5.80
2019-03-16T02:47:19.253Z,5.43
2019-03-16T02:49:47.908Z,5.87
2019-03-16T02:52:16.662Z,5.90
2019-03-16T02:54:45.296Z,6.10
2019-03-16T02:57:13.954Z,6.40
2019-03-16T02:59:42.643Z,5.70
2019-03-16T03:02:11.317Z,6.60
2019-03-16T03:04:39.967Z,6.10
2019-03-16T03:07:08.646Z,6.10
2019-03-16T03:09:37.286Z,5.80
2019-03-16T03:12:05.961Z,5.33
2019-03-16T03:14:34.909Z,4.97
2019-03-16T03:17:03.591Z,5.17
2019-03-16T03:19:32.318Z,4.60
2019-03-16T03:22:00.989Z,4.87
2019-03-16T03:24:29.746Z,4.83
2019-03-16T03:26:58.614Z,4.63
2019-03-16T03:29:27.285Z,5.80
2019-03-16T03:31:55.945Z,5.70
2019-03-16T03:34:24.619Z,5.60
2019-03-16T03:36:53.289Z,5.10
2019-03-16T03:39:21.947Z,5.17
2019-03-16T03:41:50.624Z,4.87
2019-03-16T03:44:19.335Z,5.60
2019-03-16T03:46:47.998Z,5.83
2019-03-16T03:49:16.703Z,5.97
2019-03-16T03:51:45.367Z,6.27
2019-03-16T03:54:14.027Z,6.80
2019-03-16T03:56:42.697Z,6.70
2019-03-16T03:59:11.664Z,6.80
2019-03-16T04:01:40.338Z,6.53
2019-03-16T04:04:15.625Z,6.17
2019-03-16T04:06:39.392Z,6.47
2019-03-16T04:09:08.872Z,7.50
2019-03-16T04:11:37.943Z,7.77
2019-03-16T04:14:06.595Z,8.57
2019-03-16T04:16:35.350Z,7.23
2019-03-16T04:19:04.010Z,7.27
2019-03-16T04:21:32.714Z,7.10
2019-03-16T04:24:01.352Z,6.40
2019-03-16T04:26:30.017Z,6.50
2019-03-16T04:28:58.733Z,6.47
2019-03-16T04:31:27.356Z,6.27
2019-03-16T04:33:56.023Z,6.53
2019-03-16T04:36:24.696Z,6.67
2019-03-16T04:38:53.425Z,6.50
2019-03-16T04:41:22.101Z,6.93
2019-03-16T04:43:50.766Z,7.03
2019-03-16T04:46:19.450Z,6.67
2019-03-16T04:48:48.114Z,7.23
2019-03-16T04:51:16.785Z,7.53
2019-03-16T04:53:45.460Z,7.20
2019-03-16T04:56:14.143Z,7.57
2019-03-16T04:58:42.807Z,6.80
2019-03-16T05:01:11.597Z,7.20
2019-03-16T05:03:40.254Z,7.37
2019-03-16T05:06:08.912Z,8.73
2019-03-16T05:08:37.576Z,7.30
2019-03-16T05:11:06.282Z,7.03
2019-03-16T05:13:34.941Z,7.50
2019-03-16T05:16:03.642Z,7.53
2019-03-16T05:18:32.304Z,7.00
2019-03-16T05:21:00.975Z,7.27
2019-03-16T05:23:29.641Z,7.33
2019-03-16T05:25:58.305Z,8.00
2019-03-16T05:28:26.971Z,7.47
2019-03-16T05:30:55.658Z,8.17
2019-03-16T05:33:24.322Z,7.60
2019-03-16T05:35:53.003Z,8.07
2019-03-16T05:38:21.709Z,6.97
2019-03-16T05:40:50.386Z,6.20
2019-03-16T05:43:19.038Z,6.20
2019-03-16T05:45:47.706Z,6.33
2019-03-16T05:48:16.400Z,6.17
2019-03-16T05:50:45.066Z,7.07
2019-03-16T05:53:13.747Z,6.47
2019-03-16T05:55:42.460Z,6.00
2019-03-16T05:58:11.158Z,5.93
2019-03-16T06:00:39.804Z,6.27
2019-03-16T06:03:08.474Z,5.80
2019-03-16T06:05:37.141Z,6.17
2019-03-16T06:08:05.814Z,6.30
2019-03-16T06:10:34.526Z,6.20
2019-03-16T06:13:03.222Z,6.00
2019-03-16T06:15:31.848Z,6.40
2019-03-16T06:18:00.523Z,6.77
2019-03-16T06:20:29.177Z,6.87
2019-03-16T06:22:58.328Z,6.33
2019-03-16T06:25:27.003Z,6.20
2019-03-16T06:27:55.662Z,7.00
2019-03-16T06:30:24.326Z,6.13
2019-03-16T06:32:52.995Z,8.37
2019-03-16T06:35:26.374Z,7.53
2019-03-16T06:37:52.102Z,7.43
2019-03-16T06:40:20.832Z,8.33
2019-03-16T06:42:49.498Z,7.77
2019-03-16T06:45:18.155Z,7.90
2019-03-16T06:47:46.831Z,8.57
2019-03-16T06:50:16.166Z,8.40
2019-03-16T06:52:44.820Z,7.10
2019-03-16T06:55:13.913Z,7.30
2019-03-16T06:57:42.585Z,8.13
2019-03-16T07:00:13.754Z,8.00
2019-03-16T07:02:42.520Z,8.57
2019-03-16T07:05:13.029Z,7.30
2019-03-16T07:07:41.897Z,8.07
2019-03-16T07:10:12.736Z,8.27
2019-03-16T07:12:41.500Z,7.10
2019-03-16T07:15:15.329Z,8.23
2019-03-16T07:17:44.413Z,7.83
2019-03-16T07:20:15.269Z,8.23
2019-03-16T07:22:43.956Z,7.50
2019-03-16T07:25:12.636Z,8.00
2019-03-16T07:27:41.308Z,7.50
2019-03-16T07:30:13.117Z,7.50
2019-03-16T07:32:41.803Z,7.73
2019-03-16T07:35:11.284Z,7.47
2019-03-16T07:37:39.938Z,7.73
2019-03-16T07:40:15.111Z,7.20
2019-03-16T07:42:43.723Z,9.47
2019-03-16T07:45:12.993Z,7.80
2019-03-16T07:47:41.663Z,7.60
2019-03-16T07:50:14.266Z,7.60
2019-03-16T07:52:42.948Z,8.40
2019-03-16T07:55:11.831Z,8.10
2019-03-16T07:57:41.094Z,8.30
2019-03-16T08:00:14.469Z,8.20
2019-03-16T08:02:43.135Z,9.77
2019-03-16T08:05:18.657Z,10.27
2019-03-16T08:07:45.154Z,10.60
2019-03-16T08:10:13.849Z,10.63
2019-03-16T08:12:42.524Z,10.40
2019-03-16T08:15:11.898Z,11.17
2019-03-16T08:17:40.578Z,10.23
2019-03-16T08:20:10.804Z,10.93
2019-03-16T08:22:40.400Z,9.70
2019-03-16T08:25:10.043Z,9.00
2019-03-16T08:27:38.695Z,9.30
2019-03-16T08:30:10.241Z,9.67
2019-03-16T08:32:38.911Z,8.53
2019-03-16T08:35:08.725Z,8.50
2019-03-16T08:37:37.410Z,8.60
2019-03-16T08:40:11.080Z,8.17
2019-03-16T08:42:39.753Z,7.23
2019-03-16T08:45:09.824Z,7.60
2019-03-16T08:47:38.497Z,7.27
2019-03-16T08:50:09.479Z,8.30
2019-03-16T08:52:38.151Z,8.93
2019-03-16T08:55:08.332Z,9.37
2019-03-16T08:57:37.017Z,9.53
2019-03-16T09:00:13.125Z,8.43
2019-03-16T09:02:41.871Z,7.80
2019-03-16T09:05:10.538Z,7.95
2019-03-16T09:07:39.253Z,7.22
2019-03-16T09:10:09.710Z,6.53
2019-03-16T09:12:38.389Z,7.75
2019-03-16T09:15:14.444Z,7.42
2019-03-16T09:17:43.116Z,6.25
2019-03-16T09:20:12.201Z,6.47
2019-03-16T09:22:40.896Z,6.22
2019-03-16T09:25:10.814Z,5.67
2019-03-16T09:27:39.491Z,5.92
2019-03-16T09:30:13.609Z,5.70
2019-03-16T09:32:42.287Z,5.45
2019-03-16T09:35:11.088Z,5.22
2019-03-16T09:37:39.789Z,5.22
2019-03-16T09:40:10.636Z,5.85
2019-03-16T09:42:39.306Z,4.72
2019-03-16T09:45:10.794Z,4.97
2019-03-16T09:47:39.850Z,4.75
2019-03-16T09:50:10.537Z,5.53
2019-03-16T09:52:39.509Z,5.72
2019-03-16T09:55:10.387Z,5.85
2019-03-16T09:57:39.055Z,3.55
2019-03-16T10:00:17.655Z,5.47
2019-03-16T10:02:46.460Z,2.10
2019-03-16T10:05:15.124Z,1.85
2019-03-16T10:07:43.803Z,1.67
2019-03-16T10:10:14.842Z,1.37
2019-03-16T10:12:43.777Z,1.30
2019-03-16T10:15:13.786Z,1.20
2019-03-16T10:17:42.421Z,1.12
2019-03-16T10:20:14.029Z,0.90
2019-03-16T10:22:42.817Z,1.70
2019-03-16T10:25:11.497Z,1.07
2019-03-16T10:27:40.189Z,0.90
2019-03-16T10:30:11.396Z,1.00
2019-03-16T10:32:40.049Z,1.00
2019-03-16T10:35:08.930Z,1.02
2019-03-16T10:37:37.592Z,1.40
2019-03-16T10:40:08.699Z,1.40
2019-03-16T10:42:37.392Z,1.13
2019-03-16T10:45:08.440Z,1.20
2019-03-16T10:47:37.408Z,1.10
2019-03-16T10:50:08.987Z,1.10
2019-03-16T10:52:37.676Z,1.00
2019-03-16T10:55:07.729Z,1.27
2019-03-16T10:57:36.406Z,1.17
2019-03-16T11:00:07.997Z,1.40
2019-03-16T11:02:36.681Z,1.35
2019-03-16T11:05:07.050Z,1.15
2019-03-16T11:07:35.749Z,1.17
2019-03-16T11:10:07.064Z,1.40
2019-03-16T11:12:35.762Z,1.37
2019-03-16T11:15:06.690Z,1.40
2019-03-16T11:17:35.347Z,1.23
2019-03-16T11:20:06.070Z,1.70
2019-03-16T11:22:34.757Z,1.53
2019-03-16T11:25:04.034Z,1.20
2019-03-16T11:27:32.702Z,1.10
2019-03-16T11:30:01.375Z,1.13
2019-03-16T11:32:30.050Z,1.17
2019-03-16T11:34:58.723Z,1.30
2019-03-16T11:37:27.392Z,1.50
2019-03-16T11:39:56.067Z,1.37
2019-03-16T11:42:27.728Z,1.50
2019-03-16T11:44:56.402Z,1.30
2019-03-16T11:47:25.075Z,1.47
2019-03-16T11:49:53.744Z,1.20
2019-03-16T11:52:22.446Z,1.13
2019-03-16T11:54:51.117Z,1.20
2019-03-16T11:57:19.786Z,1.30
2019-03-16T11:59:48.478Z,1.20
2019-03-16T12:02:17.149Z,1.40
2019-03-16T12:04:45.820Z,1.47
2019-03-16T12:07:14.539Z,1.53
2019-03-16T12:09:43.202Z,1.13
2019-03-16T12:12:11.872Z,1.37
2019-03-16T12:14:40.537Z,1.40
2019-03-16T12:17:09.204Z,1.20
2019-03-16T12:19:37.874Z,1.60
2019-03-16T12:22:06.537Z,2.08
2019-03-16T12:24:35.349Z,1.45
2019-03-16T12:27:04.051Z,1.30
2019-03-16T12:29:34.217Z,1.73
2019-03-16T12:32:03.057Z,1.27
2019-03-16T12:34:31.725Z,1.53
2019-03-16T12:37:00.400Z,1.90
2019-03-16T12:39:29.057Z,1.60
2019-03-16T12:41:57.763Z,1.60
2019-03-16T12:44:26.427Z,1.60
2019-03-16T12:46:55.094Z,1.50
2019-03-16T12:49:23.767Z,2.07
2019-03-16T12:51:52.435Z,1.60
2019-03-16T12:54:21.100Z,1.70
2019-03-16T12:56:49.936Z,1.77
2019-03-16T12:59:18.630Z,1.20
2019-03-16T13:01:48.255Z,1.73
2019-03-16T13:04:16.897Z,1.70
2019-03-16T13:06:45.719Z,1.77
2019-03-16T13:09:14.380Z,1.63
2019-03-16T13:11:43.099Z,1.57
2019-03-16T13:14:11.755Z,1.80
2019-03-16T13:16:40.418Z,1.63
2019-03-16T13:19:12.185Z,1.70
2019-03-16T13:21:39.739Z,2.00
2019-03-16T13:24:08.519Z,2.20
2019-03-16T13:26:37.271Z,1.80
2019-03-16T13:29:05.939Z,1.83
2019-03-16T13:31:34.623Z,1.83
2019-03-16T13:34:03.288Z,1.80
2019-03-16T13:36:31.959Z,2.10
2019-03-16T13:39:00.639Z,2.13
2019-03-16T13:41:29.309Z,2.07
2019-03-16T13:43:57.984Z,2.10
2019-03-16T13:46:26.638Z,1.90
2019-03-16T13:48:56.014Z,1.73
2019-03-16T13:51:24.740Z,1.47
2019-03-16T13:53:53.402Z,1.93
2019-03-16T13:56:22.102Z,1.70
2019-03-16T13:58:51.018Z,1.80
2019-03-16T14:01:19.682Z,2.37
2019-03-16T14:03:48.348Z,1.80
2019-03-16T14:06:17.304Z,1.80
2019-03-16T14:08:45.971Z,1.50
2019-03-16T14:11:14.633Z,1.50
2019-03-16T14:13:43.314Z,1.90
2019-03-16T14:16:12.357Z,2.00
2019-03-16T14:18:41.019Z,1.90
2019-03-16T14:21:09.676Z,1.63
2019-03-16T14:23:38.358Z,1.87
2019-03-16T14:26:07.043Z,2.10
2019-03-16T14:28:35.691Z,2.10
2019-03-16T14:31:04.435Z,2.40
2019-03-16T14:33:33.201Z,2.33
2019-03-16T14:36:02.210Z,2.07
2019-03-16T14:38:30.885Z,2.20
2019-03-16T14:40:59.573Z,2.33
2019-03-16T14:43:28.235Z,2.10
2019-03-16T14:45:56.908Z,2.70
2019-03-16T14:48:25.663Z,2.37
2019-03-16T14:50:54.410Z,2.50
2019-03-16T14:53:23.111Z,2.50
2019-03-16T14:55:51.790Z,2.47
2019-03-16T14:58:21.755Z,2.40
2019-03-16T15:00:50.421Z,2.37
2019-03-16T15:03:19.087Z,2.53
2019-03-16T15:05:47.777Z,2.37
2019-03-16T15:08:16.490Z,2.20
2019-03-16T15:10:45.294Z,2.07
2019-03-16T15:13:13.956Z,3.07
2019-03-16T15:15:42.632Z,2.70
2019-03-16T15:18:11.353Z,2.90
2019-03-16T15:20:40.017Z,2.90
2019-03-16T15:23:08.703Z,3.10
2019-03-16T15:25:37.381Z,3.03
2019-03-16T15:28:06.048Z,2.53
2019-03-16T15:30:34.710Z,2.77
2019-03-16T15:33:03.415Z,3.30
2019-03-16T15:35:32.090Z,3.10
2019-03-16T15:38:00.756Z,3.20
2019-03-16T15:40:29.423Z,2.67
2019-03-16T15:42:58.449Z,2.77
2019-03-16T15:45:31.694Z,2.70
2019-03-16T15:48:00.412Z,2.30
2019-03-16T15:50:29.080Z,2.47
2019-03-16T15:52:57.755Z,2.70
2019-03-16T15:55:26.455Z,2.30
2019-03-16T15:58:07.499Z,2.50
2019-03-16T16:00:25.540Z,2.60
2019-03-16T16:02:54.185Z,2.37
2019-03-16T16:05:22.855Z,3.43
2019-03-16T16:07:51.675Z,3.00
2019-03-16T16:10:20.653Z,3.43
2019-03-16T16:12:49.323Z,3.30
2019-03-16T16:15:18.095Z,2.90
2019-03-16T16:17:46.755Z,3.30
2019-03-16T16:20:16.431Z,2.90
2019-03-16T16:22:45.228Z,3.23
2019-03-16T16:25:14.440Z,3.47
2019-03-16T16:27:43.097Z,3.23
2019-03-16T16:30:17.821Z,3.60
2019-03-16T16:32:46.487Z,3.37
2019-03-16T16:35:15.753Z,4.10
2019-03-16T16:37:44.412Z,3.73
2019-03-16T16:40:15.148Z,3.40
2019-03-16T16:42:43.859Z,3.90
2019-03-16T16:45:14.151Z,2.93
2019-03-16T16:47:42.976Z,3.37
2019-03-16T16:50:16.601Z,3.40
2019-03-16T16:52:45.263Z,3.33
2019-03-16T16:55:13.921Z,3.70
2019-03-16T16:57:42.585Z,3.30
2019-03-16T17:00:16.826Z,3.33
2019-03-16T17:02:45.500Z,3.57
2019-03-16T17:05:14.878Z,3.93
2019-03-16T17:07:43.547Z,3.87
2019-03-16T17:10:14.495Z,3.40
2019-03-16T17:12:43.686Z,3.13
2019-03-16T17:15:20.033Z,3.00
2019-03-16T17:17:48.705Z,3.27
2019-03-16T17:20:17.464Z,3.10
2019-03-16T17:22:46.141Z,3.10
2019-03-16T17:25:18.662Z,2.80
2019-03-16T17:27:47.335Z,3.17
2019-03-16T17:30:21.801Z,2.97
2019-03-16T17:32:50.471Z,3.10
2019-03-16T17:35:19.131Z,3.10
2019-03-16T17:37:47.788Z,3.33
2019-03-16T17:40:16.866Z,3.07
2019-03-16T17:42:45.742Z,3.33
2019-03-16T17:45:14.918Z,3.80
2019-03-16T17:47:44.087Z,3.37
2019-03-16T17:50:16.408Z,3.03
2019-03-16T17:52:45.064Z,3.17
2019-03-16T17:55:18.744Z,2.57
2019-03-16T17:57:47.405Z,2.93
2019-03-16T18:00:17.064Z,2.57
2019-03-16T18:02:51.672Z,2.53
2019-03-16T18:05:16.129Z,2.20
2019-03-16T18:07:44.801Z,2.47
2019-03-16T18:10:14.581Z,3.10
2019-03-16T18:12:43.249Z,2.47
2019-03-16T18:15:19.896Z,3.13
2019-03-16T18:17:48.567Z,2.93
2019-03-16T18:20:19.267Z,2.50
2019-03-16T18:22:48.551Z,2.70
2019-03-16T18:25:17.815Z,2.60
2019-03-16T18:27:46.467Z,2.80
2019-03-16T18:30:24.603Z,2.50
2019-03-16T18:32:53.988Z,2.60
2019-03-16T18:35:22.638Z,3.20
2019-03-16T18:37:51.455Z,3.20
2019-03-16T18:40:20.119Z,3.53
2019-03-16T18:42:48.782Z,3.77
2019-03-16T18:45:25.791Z,2.80
2019-03-16T18:47:54.452Z,3.87
2019-03-16T18:50:23.209Z,4.63
2019-03-16T18:52:51.876Z,4.03
2019-03-16T18:55:20.548Z,4.17
2019-03-16T18:57:50.804Z,5.47
2019-03-16T19:00:19.958Z,5.10
2019-03-16T19:02:48.621Z,4.87
2019-03-16T19:05:17.350Z,4.37
2019-03-16T19:07:45.972Z,4.63
2019-03-16T19:10:15.939Z,4.30
2019-03-16T19:12:44.910Z,4.73
2019-03-16T19:15:15.820Z,4.83
2019-03-16T19:17:57.534Z,4.40
2019-03-16T19:20:16.847Z,5.40
2019-03-16T19:22:45.794Z,5.40
2019-03-16T19:25:19.105Z,5.43
2019-03-16T19:27:47.801Z,5.60
2019-03-16T19:30:17.463Z,5.20
2019-03-16T19:32:46.534Z,5.63
2019-03-16T19:35:15.419Z,5.03
2019-03-16T19:37:45.566Z,5.03
2019-03-16T19:40:18.996Z,4.90
2019-03-16T19:42:47.655Z,4.80
2019-03-16T19:45:16.633Z,4.80
2019-03-16T19:47:45.341Z,4.53
2019-03-16T19:50:17.704Z,5.13
2019-03-16T19:52:46.370Z,5.47
2019-03-16T19:55:15.752Z,5.37
2019-03-16T19:57:44.422Z,5.00
2019-03-16T20:00:17.094Z,5.50
2019-03-16T20:02:50.702Z,5.90
2019-03-16T20:05:16.359Z,5.17
2019-03-16T20:07:45.038Z,4.70
2019-03-16T20:10:17.635Z,4.00
2019-03-16T20:12:46.766Z,5.20
2019-03-16T20:15:16.546Z,4.73
2019-03-16T20:17:45.258Z,4.90
2019-03-16T20:20:15.229Z,5.30
2019-03-16T20:22:43.874Z,4.90
2019-03-16T20:25:12.849Z,4.20
2019-03-16T20:27:41.706Z,4.70
2019-03-16T20:30:12.846Z,6.73
2019-03-16T20:32:41.518Z,7.43
2019-03-16T20:35:10.657Z,10.53
2019-03-16T20:37:39.331Z,12.10
2019-03-16T20:40:10.871Z,12.80
2019-03-16T20:42:39.544Z,13.17
2019-03-16T20:45:09.760Z,11.87
2019-03-16T20:47:38.483Z,9.70
2019-03-16T20:50:15.808Z,10.27
2019-03-16T20:52:44.587Z,10.50
2019-03-16T20:55:13.863Z,10.57
2019-03-16T20:57:42.766Z,10.33
2019-03-16T21:00:16.065Z,9.20
2019-03-16T21:02:44.782Z,10.37
2019-03-16T21:05:13.647Z,10.00
2019-03-16T21:07:42.313Z,9.03
2019-03-16T21:10:13.771Z,12.47
2019-03-16T21:12:42.439Z,10.80
2019-03-16T21:15:15.800Z,11.83
2019-03-16T21:17:44.482Z,10.00
2019-03-16T21:20:17.197Z,11.30
2019-03-16T21:22:45.925Z,9.60
2019-03-16T21:25:15.484Z,10.77
2019-03-16T21:27:44.150Z,9.20
2019-03-16T21:30:17.711Z,9.13
2019-03-16T21:32:46.360Z,9.57
2019-03-16T21:35:15.039Z,10.47
2019-03-16T21:37:43.706Z,9.77
2019-03-16T21:40:13.473Z,9.97
2019-03-16T21:42:42.141Z,12.07
2019-03-16T21:45:12.791Z,10.50
2019-03-16T21:47:41.454Z,10.43
2019-03-16T21:50:14.395Z,10.07
2019-03-16T21:52:44.854Z,10.53
2019-03-16T21:55:14.706Z,12.87
2019-03-16T21:57:43.389Z,10.97
2019-03-16T22:00:18.377Z,10.47
2019-03-16T22:02:47.058Z,9.93
2019-03-16T22:05:15.751Z,9.47
2019-03-16T22:07:44.417Z,8.97
2019-03-16T22:10:16.824Z,8.23
2019-03-16T22:12:45.500Z,8.40
2019-03-16T22:15:16.039Z,12.87
2019-03-16T22:17:44.764Z,10.10
2019-03-16T22:20:17.245Z,8.20
2019-03-16T22:22:45.927Z,10.97
2019-03-16T22:25:14.723Z,7.00
2019-03-16T22:27:43.376Z,6.70
2019-03-16T22:30:13.840Z,7.20
2019-03-16T22:32:42.514Z,8.10
2019-03-16T22:35:11.195Z,8.13
2019-03-16T22:37:40.169Z,7.80
2019-03-16T22:40:11.134Z,6.90
2019-03-16T22:42:39.803Z,7.70
2019-03-16T22:45:13.442Z,9.17
2019-03-16T22:47:42.155Z,26.73
2019-03-16T22:50:16.200Z,51.03
2019-03-16T22:52:45.127Z,6.07
2019-03-16T22:55:16.049Z,5.60
2019-03-16T22:57:44.350Z,5.10
2019-03-16T23:00:38.571Z,6.17
2019-03-16T23:03:07.245Z,6.80
2019-03-16T23:05:37.135Z,6.30
2019-03-16T23:08:06.362Z,7.20
2019-03-16T23:10:35.037Z,5.83
2019-03-16T23:13:03.697Z,7.03
2019-03-16T23:15:32.405Z,6.47
2019-03-16T23:18:01.071Z,10.00
2019-03-16T23:20:29.862Z,7.93
2019-03-16T23:22:58.562Z,6.23
2019-03-16T23:25:27.313Z,10.30
2019-03-16T23:27:55.971Z,6.33
2019-03-16T23:30:24.633Z,7.00
2019-03-16T23:32:53.294Z,7.40
2019-03-16T23:35:21.958Z,5.43
2019-03-16T23:37:50.620Z,5.60
2019-03-16T23:40:19.291Z,6.00
2019-03-16T23:42:47.953Z,5.37
2019-03-16T23:45:16.601Z,5.27
2019-03-16T23:47:45.258Z,5.70
2019-03-16T23:50:14.622Z,5.50
2019-03-16T23:52:43.336Z,4.77
2019-03-16T23:55:12.120Z,5.63
2019-03-16T23:57:40.798Z,5.40
